Aérodrome :
LOGIN :

S'inscrire | Disclaimer

   EN    FR    IT 

 










Légende :    VFR   VFR Marginal   IFR   IFR Intensif   IFR Très Intensif
Visi : 
Plafond : 
>= 8 km
>= 3000ft
5 à 8 km
1000 à 3000 ft
1500m à 5 km
500 à 1000 ft
800 à 1500m
200 à 500 ft
< 800m
< 200 ft
Symboles :   Orages  Brouillard  Fortes neiges  Fortes précipitations  Vent > 20 kt
SIGMETs :   Divers  Orages  Givrage  Turbulence  Onde Orograph.  Cendres Volcan.







- Altitude de l'aérodrome : 989 ft
- Code IATA : TRN


LIMF - Torino Caselle

DERNIER METAR :
  • 142050Z VRB01KT 0100 R36/0350N FG VV001 08/08 Q1027

METARs EXPIRÉS :
  • 142020Z VRB01KT 0100 R36/0350N FG VV001 08/08 Q1027
  • 141950Z VRB01KT 0100 R36/0450N FG VV001 09/09 Q1027
  • 141920Z 04002KT 0100 R36/0375N FG VV001 09/09 Q1027
  • 141850Z VRB01KT 0100 R36/0325N FG VV001 10/10 Q1027
  • 141820Z 05002KT 0100 R36/0275N FG VV001 10/10 Q1027

TAF COR TAF LIMF
Valide du 14 à 18h jusqu'au 15 à 18h UTC


141732Z 1418/1518 VRB05KT 2000 BR BKN005
TEMPO 1418/1508 0600 FG BKN002
BECMG 1508/1511 4000 SCT010
Pas de NOTAMs connus pour ce terrain.



MET'MAP, la Météo Aéronautique d'un coup d'oeil ! - Copyright ORBIFLY Décembre 2007 - Disclaimer

ORBIFLY MET'MAP TEAM :

Programmation & Développement : Alexandra Zaïnal
Conception & Développement : Baudouin d'Aumeries
Co-Programmation & Développement : Marc-Olivier Méhu
Soutien technique & logistique : Manuel Goepfert

Contact : metmap@orbifly.com




SOURCES & CREDITS :

   NOAA